MUC weather

Munich Airport
Munich, Bavaria, Germany

Public forecast

Using degrees Celsius for public forecast. Weather courtesy of forecast.io.

Current aviation weather report (METAR) for Munich Airport

Retrieved 2020/01/19 09:20 UTC (19 minutes ago):

EDDM 190920Z 29004KT 260V320 9999 -SN FEW010 SCT017 BKN038 01/M01 Q1032 R26R/290095 NOSIG

Aviation forecast (TAF) for Munich Airport

Retrieved 2020/01/19 06:27 UTC (3 hours ago):

TAF EDDM 190500Z 1906/2012 31005KT 9999 BKN020 PROB30 TEMPO 1906/1916 2500 -SHSN BKN012TCU PROB30 TEMPO 1923/2004 4000 -SN BKN008 BECMG 2001/2003 06003KT BECMG 2004/2006 BKN008 BECMG 2009/2011 BKN012